Observations for LIVERPOOL AIRPORT, United Kingdom (EGGP)

EGGP 180250Z AUTO 14005KT 9999 RA FEW001/// SCT019/// BKN024/// 04/03 Q1020 
EGGP 180220Z 16003KT 9999 FEW049 04/02 Q1020
EGGP 180150Z VRB03KT 9999 FEW049 04/03 Q1021
EGGP 180120Z VRB03KT 9999 FEW049 04/03 Q1020
EGGP 180050Z 19004KT 9999 SCT049 04/03 Q1020
EGGP 180020Z 13004KT 9999 SCT049 04/02 Q1020
EGGP 172350Z 15003KT 9999 SCT044 04/03 Q1020
EGGP 172320Z VRB03KT 9999 FEW016 SCT030 04/03 Q1020 
EGGP 172250Z 14004KT 110V170 9999 FEW016 SCT028 BKN040 05/03 Q1020  
EGGP 172220Z 18004KT 9999 SCT044 05/03 Q1020
EGGP 172150Z VRB03KT CAVOK 05/03 Q1020  
EGGP 172120Z 14004KT CAVOK 04/02 Q1020  
EGGP 172050Z 16005KT CAVOK 04/02 Q1020  
EGGP 172020Z 16005KT CAVOK 05/02 Q1020  
EGGP 171950Z 15004KT CAVOK 05/02 Q1020  
EGGP 171920Z 21003KT CAVOK 06/02 Q1020  
EGGP 171850Z 22003KT CAVOK 06/02 Q1020  
EGGP 171820Z 22003KT CAVOK 06/02 Q1020  
EGGP 171750Z 22004KT CAVOK 07/02 Q1020  
EGGP 171720Z 24005KT CAVOK 07/02 Q1019  
EGGP 171650Z 25008KT 9999 FEW044 08/02 Q1019
EGGP 171620Z 27006KT 9999 FEW036 08/03 Q1019
EGGP 171550Z 27007KT 9999 FEW036 09/03 Q1019
EGGP 171520Z 25005KT 180V280 9999 SCT036 09/03 Q1019
EGGP 171450Z 23005KT 9999 SCT036 09/03 Q1019
EGGP 171420Z 24006KT 9999 SCT036 10/03 Q1019
EGGP 171350Z 23005KT 9999 SCT036 09/02 Q1019
EGGP 171320Z 24005KT 210V270 9999 FEW022 SCT044 09/02 Q1019 
EGGP 171250Z 23004KT 9999 FEW024 SCT040 09/04 Q1020 
EGGP 171220Z 24004KT 9999 FEW024 SCT034 09/04 Q1020 
EGGP 171150Z 23006KT 9999 FEW034 SCT038 10/05 Q1020 
EGGP 171120Z 22006KT 9999 SCT036 08/04 Q1019
EGGP 171050Z 21006KT 9999 SCT036 07/04 Q1019
EGGP 171020Z 21008KT 9999 SCT036 07/04 Q1019
EGGP 170950Z 20008KT 9999 SCT032 06/03 Q1019
EGGP 170920Z 19009KT 9999 SCT024 BKN030 05/03 Q1018 
EGGP 170850Z 19010KT 9999 BKN024 05/03 Q1018
EGGP 170820Z 18009KT 9999 BKN021 05/03 Q1018
EGGP 170750Z 17009KT 9999 BKN024 05/03 Q1018
EGGP 170720Z 16008KT 9999 -RA BKN028 04/03 Q1018
EGGP 170650Z 15006KT 9999 -RA BKN028 04/03 Q1018
EGGP 170620Z 15008KT 9999 BKN032 05/03 Q1018
EGGP 170550Z 14008KT 9999 BKN028 04/03 Q1018
EGGP 170520Z 14009KT 100V160 9000 SCT018 SCT020 BKN034 05/03 Q1018  
EGGP 170450Z 14009KT 9000 SCT018 SCT020 BKN034 05/03 Q1018  
EGGP 170420Z 14009KT 9999 FEW022 SCT026 BKN030 05/03 Q1018  
EGGP 170350Z 15008KT 9999 FEW022 SCT026 BKN030 05/02 Q1018  
EGGP 170320Z 15006KT 9999 BKN035 05/02 Q1019
EGGP 170250Z 16007KT 9999 BKN035 05/02 Q1019
EGGP 170220Z 17007KT 9999 BKN035 05/02 Q1019